createdAt,value
2022-09-12T00:03:05.293Z,16.3
2022-09-12T00:05:06.793Z,16.3
2022-09-12T00:07:30.163Z,16.3
2022-09-12T00:11:16.368Z,16.3
2022-09-12T00:13:43.659Z,16.3
2022-09-12T00:24:01.855Z,16.3
2022-09-12T00:26:41.783Z,16.3
2022-09-12T00:28:45.692Z,16.3
2022-09-12T00:35:58.151Z,16.3
2022-09-12T00:38:11.074Z,16.1
2022-09-12T00:45:34.966Z,16.2
2022-09-12T00:46:58.328Z,16.1
2022-09-12T00:49:03.183Z,16.3
2022-09-12T00:50:37.975Z,16.2
2022-09-12T00:51:51.467Z,16.3
2022-09-12T00:53:49.074Z,15.8
2022-09-12T00:56:06.539Z,16.1
2022-09-12T00:57:12.598Z,15.9
2022-09-12T01:06:34.816Z,15.7
2022-09-12T01:08:52.850Z,15.5
2022-09-12T01:11:17.958Z,15.5
2022-09-12T01:14:33.711Z,15.6
2022-09-12T01:17:31.156Z,15.4
2022-09-12T01:18:52.056Z,15.4
2022-09-12T01:21:01.015Z,15.3
2022-09-12T01:25:33.119Z,15.2
2022-09-12T01:27:28.563Z,15.3
2022-09-12T01:29:16.390Z,15.4
2022-09-12T01:32:53.146Z,15.4
2022-09-12T01:34:34.079Z,15.6
2022-09-12T01:35:48.183Z,15.6
2022-09-12T01:37:44.379Z,15.6
2022-09-12T01:41:19.303Z,15.7
2022-09-12T01:44:23.334Z,15.8
2022-09-12T01:48:34.797Z,16
2022-09-12T01:50:39.863Z,16
2022-09-12T01:52:18.455Z,16
2022-09-12T01:53:47.600Z,16.1
2022-09-12T01:54:55.638Z,16.1
2022-09-12T01:59:48.350Z,16
2022-09-12T02:02:03.012Z,15.9
2022-09-12T02:04:09.806Z,15.8
2022-09-12T02:12:32.857Z,15.4
2022-09-12T02:17:49.587Z,15.3
2022-09-12T02:21:40.018Z,15.4
2022-09-12T02:23:39.525Z,15.2
2022-09-12T02:24:46.422Z,15.4
2022-09-12T02:26:27.467Z,15.5
2022-09-12T02:31:52.095Z,15.6
2022-09-12T02:34:29.931Z,15.6
2022-09-12T02:49:00.513Z,15.6
2022-09-12T02:50:06.223Z,15.4
2022-09-12T02:52:03.562Z,15.4
2022-09-12T02:55:48.179Z,15.4
2022-09-12T02:57:50.106Z,15.4
2022-09-12T03:04:09.174Z,15.4
2022-09-12T03:08:19.749Z,15.4
2022-09-12T03:11:23.046Z,15.3
2022-09-12T03:25:55.141Z,15.5
2022-09-12T03:28:06.686Z,15.5
2022-09-12T03:29:16.666Z,15.4
2022-09-12T03:43:56.193Z,15.3
2022-09-12T03:53:08.552Z,15.1
2022-09-12T03:54:16.866Z,15.1
2022-09-12T04:03:28.938Z,15.2
2022-09-12T04:08:47.950Z,15.3
2022-09-12T04:12:01.838Z,15.3
2022-09-12T04:13:15.110Z,15.3
2022-09-12T04:18:15.958Z,14.9
2022-09-12T04:19:54.602Z,15.2
2022-09-12T04:21:15.478Z,15.1
2022-09-12T04:27:23.067Z,15.1
2022-09-12T04:29:53.674Z,15.2
2022-09-12T04:32:31.449Z,15.4
2022-09-12T04:36:07.429Z,15.1
2022-09-12T04:37:42.323Z,15.1
2022-09-12T04:38:54.579Z,15.2
2022-09-12T04:46:15.850Z,15.2
2022-09-12T04:47:21.950Z,15.3
2022-09-12T04:48:56.018Z,14.9
2022-09-12T04:50:05.290Z,14.9
2022-09-12T04:51:44.577Z,14.5
2022-09-12T04:53:48.266Z,14.5
2022-09-12T04:54:52.662Z,14.7
2022-09-12T04:55:57.146Z,14.8
2022-09-12T04:57:05.040Z,14.9
2022-09-12T04:58:09.401Z,14.9
2022-09-12T04:59:18.821Z,14.8
2022-09-12T05:00:23.109Z,15
2022-09-12T05:01:27.375Z,15
2022-09-12T05:02:32.210Z,15.1
2022-09-12T05:03:36.421Z,15.2
2022-09-12T05:04:41.241Z,14.8
2022-09-12T05:05:45.621Z,14.9
2022-09-12T05:06:49.918Z,15
2022-09-12T05:07:54.161Z,14.8
2022-09-12T05:08:59.054Z,14.9
2022-09-12T05:10:03.497Z,14.6
2022-09-12T05:11:10.209Z,14.8
2022-09-12T05:12:14.414Z,15.1
2022-09-12T05:13:18.585Z,15
2022-09-12T05:14:22.699Z,14.9
2022-09-12T05:15:27.009Z,15
2022-09-12T05:16:31.806Z,15
2022-09-12T05:17:36.045Z,15.1
2022-09-12T05:18:40.301Z,14.9
2022-09-12T05:19:44.461Z,15.1
2022-09-12T05:20:48.605Z,15.3
2022-09-12T05:21:53.034Z,15.4
2022-09-12T05:22:57.254Z,15
2022-09-12T05:24:01.445Z,15.3
2022-09-12T05:25:05.617Z,15.3
2022-09-12T05:26:10.477Z,15.3
2022-09-12T05:28:18.530Z,15.3
2022-09-12T05:29:23.249Z,15.3
2022-09-12T05:30:27.706Z,15.1
2022-09-12T05:31:31.860Z,15.2
2022-09-12T05:32:36.221Z,15.2
2022-09-12T05:33:40.469Z,15.3
2022-09-12T05:34:45.085Z,15.3
2022-09-12T05:35:49.348Z,15.3
2022-09-12T05:36:53.680Z,15.4
2022-09-12T05:37:58.115Z,15.4
2022-09-12T05:39:02.775Z,15.1
2022-09-12T05:40:07.361Z,15.1
2022-09-12T05:41:16.249Z,15
2022-09-12T05:42:19.964Z,15.3
2022-09-12T05:43:24.228Z,15.3
2022-09-12T05:44:28.856Z,15.3
2022-09-12T05:45:33.185Z,15.1
2022-09-12T05:46:37.654Z,15.2
2022-09-12T05:47:46.234Z,15.2
2022-09-12T05:48:55.209Z,15.3
2022-09-12T05:50:01.249Z,15.2
2022-09-12T05:51:06.333Z,15.2
2022-09-12T05:52:10.673Z,15.1
2022-09-12T05:53:16.055Z,15.3
2022-09-12T05:54:20.298Z,15.4
2022-09-12T05:55:26.489Z,15.3
2022-09-12T05:56:30.785Z,15.3
2022-09-12T05:57:35.162Z,15.3
2022-09-12T05:58:39.469Z,15.4
2022-09-12T05:59:43.829Z,15.5
2022-09-12T06:00:48.085Z,15.5
2022-09-12T06:01:52.464Z,15.5
2022-09-12T06:02:56.802Z,15.4
2022-09-12T06:04:01.464Z,15.5
2022-09-12T06:05:07.461Z,15.3
2022-09-12T06:06:11.744Z,15.3
2022-09-12T06:07:16.084Z,15.2
2022-09-12T06:08:20.705Z,15.2
2022-09-12T06:09:24.843Z,15.3
2022-09-12T06:10:29.108Z,15.2
2022-09-12T06:11:33.339Z,15.1
2022-09-12T06:12:37.628Z,15.1
2022-09-12T06:13:42.024Z,14.9
2022-09-12T06:14:46.544Z,15
2022-09-12T06:16:54.466Z,15.3
2022-09-12T06:17:58.704Z,15
2022-09-12T06:19:02.988Z,15.1
2022-09-12T06:20:12.324Z,15.2
2022-09-12T06:21:16.600Z,15
2022-09-12T06:22:21.260Z,14.9
2022-09-12T06:23:25.401Z,14.8
2022-09-12T06:24:29.656Z,14.9
2022-09-12T06:25:33.860Z,14.9
2022-09-12T06:26:38.116Z,15
2022-09-12T06:27:42.180Z,15.2
2022-09-12T06:28:46.437Z,15.2
2022-09-12T06:29:50.548Z,15.1
2022-09-12T06:30:54.843Z,15.2
2022-09-12T06:32:01.584Z,14.9
2022-09-12T06:33:05.988Z,15.2
2022-09-12T06:34:10.208Z,15.1
2022-09-12T06:35:14.484Z,14.9
2022-09-12T06:36:18.800Z,15.2
2022-09-12T06:37:23.412Z,15.3
2022-09-12T06:38:27.620Z,15.4
2022-09-12T06:39:31.845Z,15.4
2022-09-12T06:40:36.272Z,15.4
2022-09-12T06:41:44.463Z,15.4
2022-09-12T06:42:48.212Z,14.9
2022-09-12T06:43:52.397Z,15.3
2022-09-12T06:44:56.812Z,15.4
2022-09-12T06:46:01.190Z,15.5
2022-09-12T06:47:06.545Z,15.6
2022-09-12T06:48:11.479Z,15.5
2022-09-12T06:49:15.997Z,15.4
2022-09-12T06:50:20.417Z,15.6
2022-09-12T06:51:25.185Z,15.5
2022-09-12T06:52:30.670Z,15.4
2022-09-12T06:53:35.642Z,15.6
2022-09-12T06:54:39.916Z,15.6
2022-09-12T06:55:44.299Z,15.7
2022-09-12T06:56:48.930Z,15.8
2022-09-12T06:57:53.278Z,15.8
2022-09-12T06:58:58.146Z,15.9
2022-09-12T07:00:02.404Z,15.9
2022-09-12T07:01:07.375Z,15.3
2022-09-12T07:02:14.289Z,15.2
2022-09-12T07:03:18.602Z,15.6
2022-09-12T07:04:23.086Z,15.6
2022-09-12T07:05:27.751Z,15.8
2022-09-12T07:06:32.635Z,15.6
2022-09-12T07:07:37.827Z,15.8
2022-09-12T07:08:42.297Z,16
2022-09-12T07:09:46.850Z,16
2022-09-12T07:10:51.083Z,16.3
2022-09-12T07:11:55.998Z,16.1
2022-09-12T07:13:00.527Z,15.9
2022-09-12T07:14:04.985Z,15.8
2022-09-12T07:15:09.292Z,15.9
2022-09-12T07:16:17.399Z,16.1
2022-09-12T07:17:18.332Z,16
2022-09-12T07:18:22.949Z,15.6
2022-09-12T07:19:27.216Z,15.6
2022-09-12T07:20:31.448Z,15.7
2022-09-12T07:21:36.092Z,15.7
2022-09-12T07:22:40.628Z,15.9
2022-09-12T07:23:45.275Z,15.6
2022-09-12T07:24:49.743Z,15.9
2022-09-12T07:25:54.406Z,16.1
2022-09-12T07:26:58.947Z,16.2
2022-09-12T07:28:03.292Z,16
2022-09-12T07:29:32.697Z,15.8
2022-09-12T07:30:15.259Z,15.9
2022-09-12T07:31:20.584Z,16
2022-09-12T07:33:29.905Z,15.8
2022-09-12T07:34:34.305Z,16
2022-09-12T07:35:38.578Z,16.2
2022-09-12T07:36:42.881Z,16
2022-09-12T07:37:47.217Z,16
2022-09-12T07:38:54.514Z,15.9
2022-09-12T07:39:56.266Z,15.8
2022-09-12T07:41:00.822Z,16
2022-09-12T07:42:10.905Z,16
2022-09-12T07:43:16.109Z,16
2022-09-12T07:44:21.141Z,16.1
2022-09-12T07:45:25.629Z,16
2022-09-12T07:46:29.922Z,16.1
2022-09-12T07:47:34.512Z,15.7
2022-09-12T07:48:39.022Z,15.7
2022-09-12T07:49:44.425Z,15.8
2022-09-12T07:50:49.141Z,15.9
2022-09-12T07:52:00.751Z,15.5
2022-09-12T07:53:07.847Z,15.7
2022-09-12T07:54:13.583Z,15.8
2022-09-12T07:55:17.907Z,15.8
2022-09-12T07:56:25.077Z,15.6
2022-09-12T07:57:27.119Z,15.9
2022-09-12T07:58:31.654Z,15.9
2022-09-12T07:59:51.808Z,16
2022-09-12T08:00:41.084Z,16
2022-09-12T08:01:45.725Z,15.9
2022-09-12T08:02:49.999Z,15.8
2022-09-12T08:03:55.444Z,15.5
2022-09-12T08:04:59.865Z,15.7
2022-09-12T08:06:04.613Z,15.4
2022-09-12T08:07:09.085Z,15.6
2022-09-12T08:08:13.437Z,15.5
2022-09-12T08:09:18.290Z,15.6
2022-09-12T08:10:23.409Z,15.8
2022-09-12T08:11:27.994Z,16
2022-09-12T08:12:32.185Z,16
2022-09-12T08:13:38.046Z,16.2
2022-09-12T08:14:42.833Z,16.3
2022-09-12T08:15:47.434Z,16.4
2022-09-12T08:16:51.540Z,15.6
2022-09-12T08:18:01.191Z,15.6
2022-09-12T08:19:06.664Z,15.9
2022-09-12T08:20:49.360Z,16.1
2022-09-12T08:22:23.116Z,16.2
2022-09-12T08:23:30.212Z,16.4
2022-09-12T09:09:45.328Z,16.7
2022-09-12T09:12:17.522Z,16.8
2022-09-12T09:14:10.734Z,16.8
2022-09-12T09:15:28.687Z,17
2022-09-12T09:16:38.555Z,16.8
2022-09-12T09:17:51.448Z,16.9
2022-09-12T09:19:04.043Z,16.7
2022-09-12T09:20:18.335Z,17
2022-09-12T09:21:27.762Z,17
2022-09-12T09:22:40.761Z,17
2022-09-12T09:23:51.853Z,17.1
2022-09-12T09:25:05.310Z,17.2
2022-09-12T09:31:18.317Z,17.4
2022-09-12T09:34:42.910Z,17.6
2022-09-12T09:35:47.122Z,17.8
2022-09-12T09:38:35.144Z,17.4
2022-09-12T09:39:46.162Z,17.5
2022-09-12T09:42:39.598Z,17.5
2022-09-12T09:43:54.564Z,17.7
2022-09-12T09:46:34.661Z,17.5
2022-09-12T09:47:39.239Z,17.5
2022-09-12T09:48:46.164Z,17.8
2022-09-12T09:52:00.122Z,17.8
2022-09-12T09:59:09.968Z,17.8
2022-09-12T10:00:17.620Z,18
2022-09-12T10:02:07.881Z,17.6
2022-09-12T10:03:23.947Z,18
2022-09-12T10:04:46.891Z,17.9
2022-09-12T10:05:54.500Z,17.9
2022-09-12T10:07:06.928Z,17.9
2022-09-12T10:08:18.939Z,18.2
2022-09-12T10:15:16.555Z,18.7
2022-09-12T10:16:54.200Z,18.8
2022-09-12T10:17:58.492Z,18.8
2022-09-12T10:19:03.208Z,18.9
2022-09-12T10:20:20.768Z,18.8
2022-09-12T10:21:26.225Z,18.6
2022-09-12T10:22:35.964Z,18.6
2022-09-12T10:23:40.548Z,18.5
2022-09-12T10:24:44.813Z,18.5
2022-09-12T10:25:52.175Z,18.3
2022-09-12T10:26:59.432Z,18.4
2022-09-12T10:28:09.769Z,18.4
2022-09-12T10:29:14.044Z,18.5
2022-09-12T10:30:18.477Z,18.5
2022-09-12T10:31:23.753Z,18.7
2022-09-12T10:32:30.825Z,18.7
2022-09-12T10:33:41.061Z,18.3
2022-09-12T10:34:45.625Z,18.6
2022-09-12T10:35:50.012Z,18.7
2022-09-12T10:36:54.596Z,18.7
2022-09-12T10:37:59.732Z,18.6
2022-09-12T10:39:03.948Z,18.5
2022-09-12T10:40:08.265Z,18.7
2022-09-12T10:41:20.124Z,18.7
2022-09-12T10:42:24.329Z,18.8
2022-09-12T10:43:39.060Z,18.9
2022-09-12T10:44:43.565Z,18.8
2022-09-12T10:45:47.834Z,18.7
2022-09-12T10:46:52.350Z,18.8
2022-09-12T10:47:56.761Z,19
2022-09-12T10:49:01.096Z,19
2022-09-12T10:50:22.263Z,18.9
2022-09-12T10:51:25.885Z,18.9
2022-09-12T10:52:30.128Z,18.7
2022-09-12T10:53:34.881Z,18.5
2022-09-12T10:54:41.377Z,18.7
2022-09-12T10:55:45.869Z,18.5
2022-09-12T10:57:00.405Z,18.7
2022-09-12T10:59:21.645Z,18.8
2022-09-12T11:00:31.213Z,18.9
2022-09-12T11:01:35.788Z,19
2022-09-12T11:02:42.764Z,19.2
2022-09-12T11:03:57.357Z,19.3
2022-09-12T11:05:12.029Z,19.1
2022-09-12T11:06:26.760Z,19
2022-09-12T11:07:30.992Z,18.7
2022-09-12T11:08:43.129Z,18.7
2022-09-12T11:09:57.140Z,18.8
2022-09-12T11:11:06.592Z,19
2022-09-12T11:12:19.093Z,19.1
2022-09-12T11:13:29.260Z,19.1
2022-09-12T11:14:45.028Z,19
2022-09-12T11:15:52.181Z,19.2
2022-09-12T11:17:05.848Z,19.3
2022-09-12T11:18:24.616Z,19
2022-09-12T11:19:28.833Z,19
2022-09-12T11:20:33.123Z,19.2
2022-09-12T11:21:47.532Z,18.7
2022-09-12T11:22:51.884Z,18.9
2022-09-12T11:24:01.174Z,18.9
2022-09-12T11:26:22.020Z,18.9
2022-09-12T11:27:34.007Z,18.8
2022-09-12T11:28:47.131Z,18.7
2022-09-12T11:29:55.709Z,18.7
2022-09-12T11:31:00.116Z,18.7
2022-09-12T11:32:12.061Z,18.5
2022-09-12T11:33:24.391Z,18.6
2022-09-12T11:34:38.904Z,18.9
2022-09-12T11:35:50.736Z,18.7
2022-09-12T11:36:52.967Z,18.7
2022-09-12T11:38:05.069Z,18.8
2022-09-12T11:39:12.228Z,18.9
2022-09-12T11:41:20.247Z,18.9
2022-09-12T11:42:24.527Z,19
2022-09-12T11:43:31.724Z,19.1
2022-09-12T11:44:43.119Z,19.2
2022-09-12T11:45:47.444Z,19.1
2022-09-12T11:46:52.180Z,19.1
2022-09-12T11:47:56.320Z,18.9
2022-09-12T11:49:00.520Z,19.1
2022-09-12T11:50:09.856Z,19
2022-09-12T11:51:19.221Z,18.8
2022-09-12T11:52:26.055Z,19.1
2022-09-12T11:53:30.308Z,18.9
2022-09-12T11:54:34.728Z,19.1
2022-09-12T11:55:46.984Z,19.1
2022-09-12T11:56:51.216Z,18.9
2022-09-12T11:57:58.197Z,18.9
2022-09-12T11:59:02.412Z,19
2022-09-12T12:00:06.631Z,19
2022-09-12T12:03:33.956Z,19
2022-09-12T12:04:43.405Z,18.7
2022-09-12T12:05:57.851Z,18.9
2022-09-12T12:07:05.095Z,18.8
2022-09-12T12:08:12.273Z,18.8
2022-09-12T12:09:16.458Z,18.7
2022-09-12T12:10:20.748Z,18.7
2022-09-12T12:11:25.058Z,18.7
2022-09-12T12:12:34.405Z,18.7
2022-09-12T12:13:38.656Z,18.7
2022-09-12T12:14:51.012Z,18.9
2022-09-12T12:15:55.638Z,19
2022-09-12T12:17:08.038Z,19
2022-09-12T12:18:18.014Z,19.1
2022-09-12T12:19:25.531Z,19.3
2022-09-12T12:20:34.798Z,19.1
2022-09-12T12:21:39.330Z,19.4
2022-09-12T12:23:52.365Z,19.8
2022-09-12T12:25:04.594Z,19.8
2022-09-12T12:26:08.976Z,19.5
2022-09-12T12:27:13.256Z,19.3
2022-09-12T12:28:23.528Z,19.1
2022-09-12T12:29:40.357Z,19.3
2022-09-12T12:30:43.577Z,19.6
2022-09-12T12:31:56.188Z,19.6
2022-09-12T12:33:00.466Z,19.4
2022-09-12T12:34:09.897Z,19.2
2022-09-12T12:35:19.767Z,19.3
2022-09-12T12:36:34.177Z,19.6
2022-09-12T12:37:38.677Z,19.7
2022-09-12T12:38:43.205Z,19.7
2022-09-12T12:39:48.088Z,19.4
2022-09-12T12:40:57.115Z,19.4
2022-09-12T12:42:13.154Z,19.2
2022-09-12T12:43:20.969Z,19.5
2022-09-12T12:44:28.289Z,19.5
2022-09-12T12:45:42.809Z,19.4
2022-09-12T12:46:47.033Z,19.7
2022-09-12T12:48:04.032Z,19.7
2022-09-12T12:49:11.051Z,19.5
2022-09-12T12:50:18.269Z,19.5
2022-09-12T12:51:22.690Z,19.5
2022-09-12T12:52:37.194Z,19.6
2022-09-12T12:53:46.711Z,19.7
2022-09-12T12:54:50.969Z,19.7
2022-09-12T12:55:59.549Z,19.8
2022-09-12T12:57:03.937Z,19.7
2022-09-12T12:58:13.193Z,19.8
2022-09-12T12:59:25.569Z,19.6
2022-09-12T13:00:29.979Z,19.3
2022-09-12T13:01:34.144Z,19.4
2022-09-12T13:02:38.556Z,19.6
2022-09-12T13:03:42.893Z,19.7
2022-09-12T13:04:47.026Z,19.6
2022-09-12T13:05:51.462Z,19.8
2022-09-12T13:06:56.029Z,19.8
2022-09-12T13:08:03.137Z,19.9
2022-09-12T13:09:15.201Z,19.8
2022-09-12T13:10:27.637Z,19.7
2022-09-12T13:11:32.001Z,19.6
2022-09-12T13:12:36.309Z,19.5
2022-09-12T13:13:40.754Z,19.6
2022-09-12T13:14:52.944Z,19.5
2022-09-12T13:16:00.335Z,19.7
2022-09-12T13:17:04.817Z,19.7
2022-09-12T13:18:09.201Z,19.7
2022-09-12T13:19:18.742Z,19.7
2022-09-12T13:20:29.376Z,19.5
2022-09-12T13:21:29.925Z,19.4
2022-09-12T13:22:34.247Z,19.1
2022-09-12T13:23:38.425Z,19.1
2022-09-12T13:24:42.755Z,19.1
2022-09-12T13:25:47.129Z,19.2
2022-09-12T13:26:54.229Z,19.2
2022-09-12T13:27:58.517Z,19
2022-09-12T13:29:10.744Z,19.2
2022-09-12T13:30:18.281Z,19.3
2022-09-12T13:31:22.873Z,19
2022-09-12T13:32:27.229Z,19.1
2022-09-12T13:33:31.640Z,19.2
2022-09-12T13:34:41.029Z,19.2
2022-09-12T13:35:53.345Z,18.8
2022-09-12T13:37:03.116Z,19
2022-09-12T13:39:21.443Z,19.1
2022-09-12T13:40:25.787Z,19.3
2022-09-12T13:41:32.737Z,19.3
2022-09-12T13:42:39.917Z,19.3
2022-09-12T13:43:49.250Z,19.3
2022-09-12T13:44:53.451Z,19.2
2022-09-12T13:46:07.840Z,18.9
2022-09-12T13:47:12.113Z,19
2022-09-12T13:48:16.404Z,19
2022-09-12T13:49:20.714Z,18.9
2022-09-12T13:50:30.269Z,18.9
2022-09-12T13:51:39.629Z,18.8
2022-09-12T13:52:43.988Z,18.5
2022-09-12T13:53:56.457Z,18.5
2022-09-12T13:55:00.903Z,18.5
2022-09-12T13:56:10.405Z,18.5
2022-09-12T13:57:17.530Z,18.3
2022-09-12T13:58:31.949Z,18.1
2022-09-12T13:59:36.340Z,18.1
2022-09-12T14:00:40.681Z,18.2
2022-09-12T14:01:45.053Z,18.2
2022-09-12T14:02:49.403Z,18.2
2022-09-12T14:03:58.760Z,18
2022-09-12T14:05:15.865Z,18.2
2022-09-12T14:06:20.134Z,18.3
2022-09-12T14:07:24.432Z,18.3
2022-09-12T14:08:29.009Z,18.4
2022-09-12T14:09:33.385Z,18.4
2022-09-12T14:10:40.792Z,18.2
2022-09-12T14:11:45.197Z,18.1
2022-09-12T14:12:49.800Z,18.1
2022-09-12T14:13:54.201Z,18.2
2022-09-12T14:14:58.657Z,18.2
2022-09-12T14:16:03.193Z,18.2
2022-09-12T14:17:11.755Z,18
2022-09-12T14:18:22.377Z,18.1
2022-09-12T14:19:26.724Z,18
2022-09-12T14:20:31.461Z,18.1
2022-09-12T14:21:35.793Z,18.1
2022-09-12T14:22:42.604Z,18
2022-09-12T14:23:46.889Z,18.2
2022-09-12T14:24:51.368Z,18.1
2022-09-12T14:25:55.708Z,18.2
2022-09-12T14:27:02.829Z,18.1
2022-09-12T14:28:07.328Z,18
2022-09-12T14:29:11.624Z,18.1
2022-09-12T14:30:16.413Z,18.1
2022-09-12T14:31:26.529Z,17.9
2022-09-12T14:32:30.841Z,18
2022-09-12T14:33:35.017Z,17.8
2022-09-12T14:34:49.430Z,17.9
2022-09-12T14:36:03.852Z,17.7
2022-09-12T14:37:08.145Z,17.6
2022-09-12T14:38:12.369Z,17.8
2022-09-12T14:39:16.676Z,18
2022-09-12T14:40:31.072Z,18.1
2022-09-12T14:41:35.474Z,18.1
2022-09-12T14:42:39.825Z,18.1
2022-09-12T14:43:44.222Z,17.9
2022-09-12T14:44:48.430Z,18.1
2022-09-12T14:45:55.748Z,18.2
2022-09-12T14:48:54.986Z,17.8
2022-09-12T14:50:11.164Z,17.9
2022-09-12T14:51:17.823Z,18
2022-09-12T14:52:31.252Z,18.1
2022-09-12T14:53:35.598Z,18
2022-09-12T14:54:39.749Z,17.8
2022-09-12T14:55:43.965Z,17.8
2022-09-12T14:56:53.892Z,17.9
2022-09-12T14:57:58.305Z,18
2022-09-12T14:59:07.872Z,18
2022-09-12T15:00:22.285Z,17.9
2022-09-12T15:01:26.597Z,17.9
2022-09-12T15:02:31.036Z,17.9
2022-09-12T15:03:35.966Z,17.9
2022-09-12T15:04:45.737Z,18
2022-09-12T15:05:55.074Z,17.9
2022-09-12T15:06:59.304Z,17.9
2022-09-12T15:08:03.668Z,18
2022-09-12T15:09:07.952Z,18.1
2022-09-12T15:10:12.337Z,18.1
2022-09-12T15:11:21.795Z,18.2
2022-09-12T15:12:26.040Z,18.2
2022-09-12T15:13:33.584Z,18
2022-09-12T15:14:43.297Z,17.9
2022-09-12T15:15:47.981Z,17.8
2022-09-12T15:16:52.368Z,18
2022-09-12T15:17:56.910Z,18.1
2022-09-12T15:20:04.786Z,18.1
2022-09-12T15:21:10.115Z,18
2022-09-12T15:22:14.628Z,18
2022-09-12T15:23:19.183Z,17.9
2022-09-12T15:24:23.712Z,17.9
2022-09-12T15:25:28.396Z,18
2022-09-12T15:26:32.736Z,18
2022-09-12T15:27:37.015Z,17.7
2022-09-12T15:28:41.340Z,17.8
2022-09-12T15:29:45.673Z,17.9
2022-09-12T15:30:49.983Z,17.9
2022-09-12T15:31:54.479Z,17.8
2022-09-12T15:32:58.936Z,17.9
2022-09-12T15:34:03.612Z,17.8
2022-09-12T15:35:07.932Z,17.9
2022-09-12T15:36:17.348Z,17.7
2022-09-12T15:37:21.700Z,17.5
2022-09-12T15:38:26.801Z,17.6
2022-09-12T15:39:30.476Z,17.8
2022-09-12T15:40:34.708Z,17.7
2022-09-12T15:41:38.974Z,17.7
2022-09-12T15:42:43.372Z,17.7
2022-09-12T15:43:47.580Z,17.8
2022-09-12T15:44:51.824Z,17.6
2022-09-12T15:45:56.049Z,17.8
2022-09-12T15:47:00.268Z,17.8
2022-09-12T15:48:04.532Z,17.8
2022-09-12T15:49:08.774Z,17.7
2022-09-12T15:50:13.084Z,17.8
2022-09-12T15:51:17.512Z,17.8
2022-09-12T15:52:21.874Z,17.7
2022-09-12T15:53:26.298Z,17.8
2022-09-12T15:54:30.464Z,17.6
2022-09-12T15:55:34.696Z,17.7
2022-09-12T15:56:38.993Z,17.7
2022-09-12T15:57:43.372Z,17.8
2022-09-12T15:58:58.028Z,17.8
2022-09-12T15:59:52.657Z,17.8
2022-09-12T16:00:56.924Z,17.8
2022-09-12T16:02:01.218Z,17.7
2022-09-12T16:03:05.674Z,17.7
2022-09-12T16:04:10.396Z,17.7
2022-09-12T16:05:22.764Z,17.7
2022-09-12T16:08:19.864Z,17.6
2022-09-12T16:09:25.041Z,17.6
2022-09-12T16:10:29.212Z,17.6
2022-09-12T16:11:33.644Z,17.6
2022-09-12T16:12:37.747Z,17.6
2022-09-12T16:13:42.047Z,17.7
2022-09-12T16:14:46.342Z,17.6
2022-09-12T16:15:51.264Z,17.6
2022-09-12T16:16:58.504Z,17.6
2022-09-12T16:19:06.835Z,17.6
2022-09-12T16:20:11.535Z,17.6
2022-09-12T16:21:16.255Z,17.6
2022-09-12T16:22:20.351Z,17.6
2022-09-12T16:23:26.597Z,17.6
2022-09-12T16:24:30.816Z,17.6
2022-09-12T16:25:35.268Z,17.6
2022-09-12T16:26:42.753Z,17.6
2022-09-12T16:27:48.547Z,17.6
2022-09-12T16:28:53.092Z,17.6
2022-09-12T16:29:57.611Z,17.6
2022-09-12T16:31:01.766Z,17.6
2022-09-12T16:32:06.689Z,17.6
2022-09-12T16:33:11.099Z,17.6
2022-09-12T16:34:15.507Z,17.6
2022-09-12T16:35:20.624Z,17.6
2022-09-12T16:36:25.169Z,17.6
2022-09-12T16:37:29.431Z,17.6
2022-09-12T16:38:35.997Z,17.6
2022-09-12T16:39:45.876Z,17.6
2022-09-12T16:40:50.517Z,17.6
2022-09-12T16:41:54.951Z,17.6
2022-09-12T16:42:59.330Z,17.6
2022-09-12T16:44:03.560Z,17.6
2022-09-12T16:45:07.869Z,17.6
2022-09-12T16:46:12.244Z,17.6
2022-09-12T16:47:16.429Z,17.6
2022-09-12T16:48:21.048Z,17.6
2022-09-12T16:49:28.419Z,17.6
2022-09-12T16:50:32.807Z,17.6
2022-09-12T16:51:39.119Z,17.6
2022-09-12T16:52:43.500Z,17.6
2022-09-12T16:53:48.083Z,17.6
2022-09-12T16:54:52.387Z,17.6
2022-09-12T16:55:56.711Z,17.6
2022-09-12T16:57:01.093Z,17.6
2022-09-12T16:58:05.305Z,17.6
2022-09-12T16:59:14.928Z,17.6
2022-09-12T17:00:19.797Z,17.7
2022-09-12T17:01:26.297Z,17.7
2022-09-12T17:02:30.587Z,17.8
2022-09-12T17:03:35.008Z,17.8
2022-09-12T17:04:39.404Z,17.8
2022-09-12T17:05:43.832Z,17.8
2022-09-12T17:06:48.316Z,17.9
2022-09-12T17:07:52.600Z,17.9
2022-09-12T17:08:56.960Z,17.9
2022-09-12T17:11:07.457Z,18
2022-09-12T17:12:11.872Z,18
2022-09-12T17:13:16.323Z,18.1
2022-09-12T17:14:20.876Z,18.1
2022-09-12T17:15:25.945Z,18.1
2022-09-12T17:16:30.275Z,18.1
2022-09-12T17:17:35.097Z,18
2022-09-12T17:18:39.553Z,18
2022-09-12T17:19:44.196Z,18
2022-09-12T17:20:48.445Z,18
2022-09-12T17:21:52.720Z,17.9
2022-09-12T17:24:46.325Z,17.8
2022-09-12T17:25:50.607Z,17.8
2022-09-12T17:26:55.327Z,17.7
2022-09-12T17:27:59.529Z,17.7
2022-09-12T17:29:04.699Z,17.7
2022-09-12T17:30:09.231Z,17.6
2022-09-12T17:31:18.270Z,17.6
2022-09-12T17:36:01.556Z,17.4
2022-09-12T17:40:58.854Z,17.4
2022-09-12T17:46:00.605Z,17.5
2022-09-12T17:51:13.502Z,17.7
2022-09-12T17:56:26.500Z,17.7
2022-09-12T18:01:09.996Z,17.5
2022-09-12T18:06:22.822Z,17.3
2022-09-12T18:07:29.786Z,17.3
2022-09-12T18:12:07.399Z,17.1
2022-09-12T18:20:17.563Z,16.8
2022-09-12T18:25:00.307Z,16.9
2022-09-12T18:32:50.919Z,17.1
2022-09-12T18:34:00.115Z,17.1
2022-09-12T18:39:28.135Z,17
2022-09-12T18:43:58.118Z,17
2022-09-12T18:49:31.175Z,16.8
2022-09-12T18:57:44.460Z,16.4
2022-09-12T18:58:49.600Z,16.3
2022-09-12T19:10:05.840Z,16.3
2022-09-12T19:11:14.943Z,16.3
2022-09-12T19:16:29.030Z,16.3
2022-09-12T19:20:58.733Z,16.3
2022-09-12T19:26:12.136Z,16.1
2022-09-12T19:30:44.841Z,16.1
2022-09-12T19:35:24.946Z,15.8
2022-09-12T19:40:47.578Z,15.6
2022-09-12T19:45:40.342Z,15.7
2022-09-12T19:50:23.030Z,15.8
2022-09-12T19:55:20.715Z,15.8
2022-09-12T20:00:33.503Z,15.7
2022-09-12T20:05:03.155Z,15.6
2022-09-12T20:10:16.031Z,15.4
2022-09-12T20:14:58.709Z,15.4
2022-09-12T20:20:11.385Z,15.4
2022-09-12T20:25:29.394Z,15.4
2022-09-12T20:31:02.432Z,15.4
2022-09-12T20:35:45.335Z,15.4
2022-09-12T20:40:52.972Z,15.3
2022-09-12T20:46:25.713Z,15.3
2022-09-12T20:54:34.755Z,15.2
2022-09-12T20:59:17.554Z,15.1
2022-09-12T21:04:00.278Z,15
2022-09-12T21:08:42.963Z,15
2022-09-12T21:21:06.805Z,15
2022-09-12T21:22:15.851Z,15
2022-09-12T21:27:02.213Z,14.9
2022-09-12T21:32:21.531Z,14.8
2022-09-12T21:37:51.878Z,14.7
2022-09-12T21:46:01.021Z,14.8
2022-09-12T21:50:43.754Z,14.8
2022-09-12T21:55:27.974Z,14.7
2022-09-12T22:00:31.082Z,14.6
2022-09-12T22:01:35.254Z,14.6
2022-09-12T22:05:01.794Z,14.5
2022-09-12T22:10:15.018Z,14.5
2022-09-12T22:11:19.062Z,14.5
2022-09-12T22:19:26.248Z,14.6
2022-09-12T22:24:09.178Z,14.5
2022-09-12T22:25:18.470Z,14.4
2022-09-12T22:36:38.699Z,14.2
2022-09-12T22:37:44.830Z,14.2
2022-09-12T22:42:57.650Z,14.2
2022-09-12T22:47:40.598Z,14.3
2022-09-12T22:52:53.341Z,14.4
2022-09-12T22:58:21.674Z,14.4
2022-09-12T23:03:04.738Z,14.4
2022-09-12T23:08:17.639Z,14.4
2022-09-12T23:13:30.310Z,14.4
2022-09-12T23:17:59.862Z,14.4
2022-09-12T23:22:42.622Z,14.3
2022-09-12T23:27:55.670Z,14.3
2022-09-12T23:33:28.268Z,14.2
2022-09-12T23:41:37.738Z,14
2022-09-12T23:46:20.560Z,13.8
